Time;durP1;ratioP1;P1;durP2;ratioP2;P2;SDS_P1;SDS_P2;PMS_P1;PMS_P2;Temp;Humidity;BMP_temperature;BMP_pressure;BME280_temperature;BME280_humidity;BME280_pressure;Samples;Min_cycle;Max_cycle;Signal;HPM_P1;HPM_P2
2022/04/23 00:02:10;;;;;;;0.70;0.52;;;;;;;12.27;80.87;100505.69;5050123;28;20697;-68
2022/04/23 00:04:35;;;;;;;1.17;0.88;;;;;;;12.35;80.24;100504.63;5070201;28;20572;-68
2022/04/23 00:07:01;;;;;;;0.75;0.70;;;;;;;12.11;81.32;100503.19;5069054;28;20123;-68
2022/04/23 00:09:26;;;;;;;1.25;0.75;;;;;;;12.12;81.45;100502.03;5070318;28;20055;-69
2022/04/23 00:11:55;;;;;;;0.95;0.60;;;;;;;12.07;81.66;100498.88;5069129;28;20110;-68
2022/04/23 00:14:20;;;;;;;1.08;0.90;;;;;;;11.98;82.22;100499.16;5069386;28;20517;-70
2022/04/23 00:16:46;;;;;;;2.40;1.45;;;;;;;12.06;81.33;100497.34;5069529;28;20060;-71
2022/04/23 00:19:11;;;;;;;1.17;0.82;;;;;;;12.07;81.40;100488.88;5069636;28;20310;-69
2022/04/23 00:21:37;;;;;;;0.57;0.57;;;;;;;11.98;81.25;100487.59;5049885;28;20094;-70
2022/04/23 00:24:04;;;;;;;0.60;0.60;;;;;;;11.90;82.41;100488.66;5053668;28;20040;-70
2022/04/23 00:26:29;;;;;;;1.10;0.73;;;;;;;11.85;82.47;100497.84;5081467;28;20127;-68
2022/04/23 00:28:55;;;;;;;0.70;0.70;;;;;;;11.85;82.47;100492.44;5075804;28;20458;-72
2022/04/23 00:31:20;;;;;;;3.47;1.00;;;;;;;11.73;81.92;100481.88;5053291;28;20135;-68
2022/04/23 00:33:46;;;;;;;1.50;0.70;;;;;;;11.71;82.11;100492.28;5073833;28;20032;-69
2022/04/23 00:36:11;;;;;;;1.63;0.73;;;;;;;11.60;82.71;100496.72;5072693;28;20090;-69
2022/04/23 00:38:39;;;;;;;1.33;1.08;;;;;;;11.77;81.49;100491.59;5054699;28;20032;-68
2022/04/23 00:41:05;;;;;;;1.08;0.90;;;;;;;11.70;82.75;100502.28;5071712;28;20032;-68
2022/04/23 00:43:33;;;;;;;1.40;0.93;;;;;;;11.74;82.24;100494.25;5085168;28;20408;-68
2022/04/23 00:45:59;;;;;;;2.72;1.13;;;;;;;11.67;82.01;100494.16;5073242;28;20041;-68
2022/04/23 00:48:26;;;;;;;2.95;0.80;;;;;;;11.60;82.34;100491.31;5071589;28;20499;-68
2022/04/23 00:50:53;;;;;;;2.03;0.88;;;;;;;11.63;81.82;100491.38;5054901;28;20040;-68
2022/04/23 00:53:19;;;;;;;1.98;0.95;;;;;;;11.63;82.21;100496.75;5073031;28;20046;-68
2022/04/23 00:55:46;;;;;;;3.47;1.20;;;;;;;11.56;82.21;100493.19;5071985;28;20029;-70
2022/04/23 00:58:15;;;;;;;1.58;0.82;;;;;;;11.47;82.37;100496.19;5072326;28;20568;-68
2022/04/23 01:00:41;;;;;;;0.80;0.68;;;;;;;11.49;81.85;100490.41;5078637;22;20049;-67
2022/04/23 01:03:07;;;;;;;1.58;0.85;;;;;;;11.43;82.52;100492.66;5021799;28;20037;-69
2022/04/23 01:05:33;;;;;;;1.23;0.85;;;;;;;11.38;83.07;100494.88;5013533;28;20046;-68
2022/04/23 01:08:02;;;;;;;1.45;0.90;;;;;;;11.41;82.61;100488.75;5021654;28;20052;-70
2022/04/23 01:10:28;;;;;;;10.75;1.13;;;;;;;11.36;83.05;100491.78;5032132;28;20041;-68
2022/04/23 01:12:53;;;;;;;1.00;0.80;;;;;;;11.35;82.71;100488.28;5032375;28;20108;-68
2022/04/23 01:15:21;;;;;;;1.17;1.05;;;;;;;11.24;83.38;100494.66;5030448;28;20036;-68
2022/04/23 01:17:49;;;;;;;1.25;0.70;;;;;;;11.23;83.62;100491.19;5027662;28;20033;-68
2022/04/23 01:20:15;;;;;;;1.88;0.70;;;;;;;11.22;83.26;100492.34;5031594;28;20048;-68
2022/04/23 01:22:43;;;;;;;0.95;0.82;;;;;;;11.21;83.58;100490.00;5027607;28;20095;-68
2022/04/23 01:25:12;;;;;;;1.85;0.88;;;;;;;11.07;83.63;100485.16;5031916;28;20029;-68
2022/04/23 01:27:39;;;;;;;0.73;0.55;;;;;;;10.98;83.92;100494.63;5047242;28;20565;-68
2022/04/23 01:30:06;;;;;;;1.15;0.82;;;;;;;10.97;84.78;100493.88;5030473;28;20048;-68
2022/04/23 01:32:32;;;;;;;1.00;0.88;;;;;;;11.01;83.54;100494.72;5028807;28;20405;-68
2022/04/23 01:34:58;;;;;;;1.13;0.85;;;;;;;11.02;84.23;100500.84;5031189;28;20029;-68
2022/04/23 01:37:24;;;;;;;3.70;1.13;;;;;;;10.95;83.88;100492.69;5031905;28;20041;-68
2022/04/23 01:39:49;;;;;;;1.30;0.98;;;;;;;10.93;84.71;100497.66;5017548;28;20037;-68
2022/04/23 01:42:19;;;;;;;2.10;0.85;;;;;;;10.90;84.60;100502.63;5014648;28;20108;-68
2022/04/23 01:44:49;;;;;;;4.53;1.05;;;;;;;10.87;84.13;100497.97;5031411;28;20048;-68
2022/04/23 01:47:14;;;;;;;1.02;0.77;;;;;;;10.84;84.37;100500.56;5031540;28;20084;-68
2022/04/23 01:49:41;;;;;;;0.90;0.82;;;;;;;10.78;84.51;100499.34;5032085;28;20073;-68
2022/04/23 01:52:06;;;;;;;2.92;1.52;;;;;;;10.80;84.71;100492.44;5030721;28;20055;-68
2022/04/23 01:54:32;;;;;;;1.10;0.90;;;;;;;10.75;84.56;100491.97;5032121;28;20034;-68
2022/04/23 01:56:59;;;;;;;1.13;0.98;;;;;;;10.76;85.05;100493.53;5021865;28;20037;-68
2022/04/23 01:59:25;;;;;;;1.38;0.88;;;;;;;10.74;85.07;100493.88;5025171;28;20034;-68
2022/04/23 02:01:51;;;;;;;1.60;1.02;;;;;;;10.73;84.96;100497.72;5023359;28;20406;-68
2022/04/23 02:04:17;;;;;;;1.50;0.93;;;;;;;10.60;84.93;100498.25;5014467;28;20037;-68
2022/04/23 02:06:43;;;;;;;3.05;1.33;;;;;;;10.57;84.89;100499.72;5029809;28;20029;-68
2022/04/23 02:09:08;;;;;;;1.88;0.82;;;;;;;10.46;85.28;100498.00;5030098;28;20406;-67
2022/04/23 02:11:33;;;;;;;1.05;0.63;;;;;;;10.41;85.66;100501.78;5032980;28;20043;-68
2022/04/23 02:14:02;;;;;;;1.92;0.85;;;;;;;10.15;86.49;100504.34;5032374;28;20421;-68
2022/04/23 02:16:28;;;;;;;3.50;2.45;;;;;;;10.14;86.87;100497.41;5037589;28;20038;-68
2022/04/23 02:18:54;;;;;;;2.67;1.52;;;;;;;10.24;86.75;100499.50;5028687;28;20508;-68
2022/04/23 02:21:19;;;;;;;1.85;1.00;;;;;;;10.21;86.78;100505.59;5020906;28;20108;-68
2022/04/23 02:23:45;;;;;;;0.90;0.90;;;;;;;10.28;86.12;100500.34;5015310;28;20045;-68
2022/04/23 02:26:10;;;;;;;1.02;0.75;;;;;;;10.24;86.55;100493.38;5031547;28;20053;-68
2022/04/23 02:28:38;;;;;;;20.13;1.20;;;;;;;10.27;86.17;100498.81;5019741;28;20141;-68
2022/04/23 02:31:05;;;;;;;1.85;1.15;;;;;;;10.25;86.33;100501.06;5015109;28;20044;-68
2022/04/23 02:33:31;;;;;;;1.40;0.82;;;;;;;10.22;86.20;100493.69;5023423;28;20033;-68
2022/04/23 02:35:56;;;;;;;1.35;1.00;;;;;;;10.16;86.28;100497.03;5036112;28;20099;-68
2022/04/23 02:38:22;;;;;;;2.03;1.10;;;;;;;10.11;86.97;100497.31;5024029;28;20032;-68
2022/04/23 02:40:47;;;;;;;1.50;1.23;;;;;;;9.99;87.19;100500.91;5030012;28;20867;-68
2022/04/23 02:43:12;;;;;;;1.35;1.25;;;;;;;10.03;87.34;100499.84;5029319;28;20044;-68
2022/04/23 02:45:39;;;;;;;2.67;1.52;;;;;;;9.97;87.48;100489.72;5038284;28;20034;-68
2022/04/23 02:48:05;;;;;;;3.08;1.45;;;;;;;9.88;87.65;100492.63;5029272;28;20132;-68
2022/04/23 02:50:37;;;;;;;1.70;1.13;;;;;;;9.92;87.60;100492.69;5029641;28;20193;-68
2022/04/23 02:53:04;;;;;;;3.13;2.00;;;;;;;9.95;87.78;100490.06;5029675;28;20048;-69
2022/04/23 02:55:31;;;;;;;2.08;1.83;;;;;;;9.85;88.32;100496.00;5021290;28;20067;-68
2022/04/23 02:58:01;;;;;;;2.03;1.33;;;;;;;9.80;88.49;100492.84;5028153;28;20029;-68
2022/04/23 03:00:26;;;;;;;1.42;1.05;;;;;;;9.83;88.24;100498.28;5022013;28;20029;-68
2022/04/23 03:02:52;;;;;;;2.05;1.08;;;;;;;9.87;88.06;100493.00;5025149;28;20474;-68
2022/04/23 03:05:18;;;;;;;2.78;1.38;;;;;;;9.76;88.26;100492.75;5029365;28;20041;-69
2022/04/23 03:07:45;;;;;;;2.22;1.58;;;;;;;9.81;88.39;100499.78;5010219;28;20037;-69
2022/04/23 03:10:16;;;;;;;1.73;1.30;;;;;;;9.77;88.24;100488.97;5009957;28;20038;-69
2022/04/23 03:12:43;;;;;;;1.17;0.90;;;;;;;9.87;87.72;100493.00;5028992;28;20040;-69
2022/04/23 03:15:16;;;;;;;2.67;1.88;;;;;;;9.87;87.95;100503.75;5025389;28;20056;-68
2022/04/23 03:17:42;;;;;;;2.58;1.55;;;;;;;9.79;88.04;100496.66;5028675;28;20047;-68
2022/04/23 03:20:09;;;;;;;2.40;1.38;;;;;;;9.74;88.38;100496.94;5012362;28;20132;-68
2022/04/23 03:22:36;;;;;;;2.45;1.15;;;;;;;9.69;88.57;100502.59;5016850;28;20038;-68
2022/04/23 03:25:02;;;;;;;3.83;1.10;;;;;;;9.64;88.76;100511.69;5016086;28;20115;-68
2022/04/23 03:27:29;;;;;;;2.28;1.45;;;;;;;9.62;89.00;100499.75;5022870;28;20064;-68
2022/04/23 03:29:58;;;;;;;0.98;0.98;;;;;;;9.59;88.89;100512.00;5023893;28;20048;-68
2022/04/23 03:32:24;;;;;;;1.58;0.93;;;;;;;9.58;89.44;100509.66;5028290;28;20476;-69
2022/04/23 03:34:49;;;;;;;2.67;1.63;;;;;;;9.53;89.73;100501.84;5021121;28;20061;-68
2022/04/23 03:37:15;;;;;;;1.63;1.10;;;;;;;9.52;89.29;100511.06;5020858;28;20028;-68
2022/04/23 03:39:40;;;;;;;3.17;1.38;;;;;;;9.53;89.39;100499.94;5016106;28;20033;-68
2022/04/23 03:42:06;;;;;;;4.10;1.48;;;;;;;9.50;88.81;100511.41;5019472;28;20025;-68
2022/04/23 03:44:32;;;;;;;2.45;1.63;;;;;;;9.35;90.41;100503.38;5024642;28;20028;-68
2022/04/23 03:46:58;;;;;;;1.35;1.23;;;;;;;9.30;90.53;100501.75;5010138;28;20403;-68
2022/04/23 03:49:24;;;;;;;2.60;1.27;;;;;;;9.37;90.31;100503.81;5016497;28;20041;-68
2022/04/23 03:51:50;;;;;;;2.45;1.15;;;;;;;9.30;91.07;100504.44;5026757;28;20029;-69
2022/04/23 03:54:16;;;;;;;4.13;1.85;;;;;;;9.32;91.03;100499.47;5019698;28;20038;-68
2022/04/23 03:56:42;;;;;;;1.52;1.10;;;;;;;9.39;90.51;100499.63;5012775;28;20096;-68
2022/04/23 03:59:08;;;;;;;3.00;1.40;;;;;;;9.40;89.91;100503.88;5017931;28;20037;-68
2022/04/23 04:01:34;;;;;;;5.53;2.33;;;;;;;9.38;90.38;100494.63;5036235;28;20043;-68
2022/04/23 04:04:00;;;;;;;1.98;1.20;;;;;;;9.39;90.09;100501.56;5024020;28;20048;-68
2022/04/23 04:06:27;;;;;;;2.47;1.65;;;;;;;9.35;90.61;100504.16;5025983;28;20037;-69
2022/04/23 04:08:53;;;;;;;2.47;1.20;;;;;;;9.36;90.21;100494.19;5025536;28;20611;-69
2022/04/23 04:11:18;;;;;;;2.15;1.60;;;;;;;9.27;90.72;100509.72;5023777;28;20059;-69
2022/04/23 04:13:43;;;;;;;1.80;1.42;;;;;;;9.26;90.78;100500.88;5025886;28;20478;-69
2022/04/23 04:16:09;;;;;;;6.30;1.05;;;;;;;9.26;91.04;100510.84;5023119;28;20490;-69
2022/04/23 04:18:35;;;;;;;7.53;1.38;;;;;;;9.29;90.30;100500.16;5030341;28;20037;-68
2022/04/23 04:21:00;;;;;;;2.55;1.05;;;;;;;9.28;90.41;100509.38;5027801;28;20116;-69
2022/04/23 04:23:27;;;;;;;4.85;1.48;;;;;;;9.28;89.92;100508.56;5027574;28;20034;-69
2022/04/23 04:25:52;;;;;;;2.10;1.15;;;;;;;9.22;90.62;100512.66;5020183;28;20038;-69
2022/04/23 04:28:18;;;;;;;1.55;1.25;;;;;;;9.22;90.32;100504.59;5024582;28;20288;-68
2022/04/23 04:33:27;;;;;;;8.57;1.95;;;;;;;9.15;91.61;100515.19;5029893;28;20030;-68
2022/04/23 04:35:53;;;;;;;1.85;1.35;;;;;;;9.14;91.65;100513.66;5033712;28;20024;-68
2022/04/23 04:38:18;;;;;;;2.00;1.25;;;;;;;9.17;91.52;100510.25;5023195;28;20076;-69
2022/04/23 04:40:44;;;;;;;1.42;1.25;;;;;;;9.18;91.33;100515.25;5030289;28;21788;-69
2022/04/23 04:43:09;;;;;;;1.88;1.17;;;;;;;9.16;91.50;100508.69;5022740;28;20048;-69
2022/04/23 04:45:34;;;;;;;1.83;1.35;;;;;;;9.22;91.24;100520.72;5032474;28;20056;-69
2022/04/23 04:48:00;;;;;;;2.70;1.77;;;;;;;9.15;91.81;100521.34;5032735;28;20041;-69
2022/04/23 04:50:25;;;;;;;3.45;1.67;;;;;;;9.18;91.26;100517.94;5029951;28;20100;-69
2022/04/23 04:52:51;;;;;;;3.20;1.85;;;;;;;9.18;91.73;100515.25;5031598;28;20041;-69
2022/04/23 04:55:16;;;;;;;2.55;1.63;;;;;;;9.16;91.79;100514.84;5032168;28;20043;-69
2022/04/23 04:57:42;;;;;;;2.08;1.63;;;;;;;9.14;92.15;100513.66;5024589;28;20124;-69
2022/04/23 05:00:08;;;;;;;1.58;1.13;;;;;;;9.17;92.05;100512.94;5023575;28;20147;-69
2022/04/23 05:02:34;;;;;;;3.95;1.15;;;;;;;9.14;92.02;100510.97;5029841;28;20463;-69
2022/04/23 05:04:59;;;;;;;1.27;1.17;;;;;;;9.12;92.67;100518.59;5030471;28;20108;-68
2022/04/23 05:07:25;;;;;;;1.83;1.30;;;;;;;9.17;92.60;100521.00;5028398;28;20124;-68
2022/04/23 05:09:50;;;;;;;2.20;1.65;;;;;;;9.17;92.41;100519.09;5031028;28;20039;-69
2022/04/23 05:12:16;;;;;;;2.42;1.15;;;;;;;9.20;92.41;100513.00;5029851;28;20548;-69
2022/04/23 05:14:41;;;;;;;4.05;1.75;;;;;;;9.30;92.25;100523.22;5032252;28;20033;-69
2022/04/23 05:17:07;;;;;;;1.15;1.05;;;;;;;9.38;91.94;100524.16;5031393;28;20124;-69
2022/04/23 05:19:32;;;;;;;4.93;2.03;;;;;;;9.32;92.24;100518.28;5031645;28;20025;-69
2022/04/23 05:21:58;;;;;;;2.70;1.75;;;;;;;9.36;92.14;100524.53;5028017;28;20068;-69
2022/04/23 05:24:24;;;;;;;2.88;1.30;;;;;;;9.45;92.26;100521.63;5032034;28;20052;-69
2022/04/23 05:26:50;;;;;;;3.17;1.42;;;;;;;9.58;91.32;100525.78;5019628;28;20046;-69
2022/04/23 05:29:15;;;;;;;1.02;0.80;;;;;;;9.63;91.07;100525.50;5012632;28;20053;-68
2022/04/23 05:31:40;;;;;;;5.00;2.30;;;;;;;9.71;91.45;100537.97;5011799;28;20025;-69
2022/04/23 05:34:06;;;;;;;1.45;1.35;;;;;;;10.03;90.12;100534.81;5025374;28;20037;-69
2022/04/23 05:36:31;;;;;;;1.73;1.60;;;;;;;9.97;89.85;100540.81;5029309;28;20083;-69
2022/04/23 05:38:57;;;;;;;1.08;0.95;;;;;;;10.11;89.75;100545.75;5019824;28;20547;-68
2022/04/23 05:41:23;;;;;;;1.23;1.13;;;;;;;10.26;89.16;100543.00;5013069;28;20450;-68
2022/04/23 05:43:48;;;;;;;2.97;1.75;;;;;;;10.66;88.46;100537.22;5020648;28;20059;-69
2022/04/23 05:46:16;;;;;;;1.83;1.70;;;;;;;11.28;85.27;100541.34;5031980;28;20068;-69
2022/04/23 05:48:42;;;;;;;3.78;1.13;;;;;;;11.75;81.93;100545.13;5030316;28;20060;-69
2022/04/23 05:51:08;;;;;;;2.22;1.65;;;;;;;12.21;79.89;100539.56;5031195;28;20715;-69
2022/04/23 05:53:33;;;;;;;4.30;2.17;;;;;;;12.76;76.27;100543.22;5031874;28;20033;-69
2022/04/23 05:55:59;;;;;;;4.32;2.20;;;;;;;12.93;75.18;100545.31;5013900;28;20506;-69
2022/04/23 05:58:24;;;;;;;7.95;1.77;;;;;;;13.27;73.40;100549.50;5028248;28;20057;-69
2022/04/23 06:00:51;;;;;;;4.05;1.80;;;;;;;13.53;71.35;100563.59;5031525;28;20040;-69
2022/04/23 06:03:17;;;;;;;3.00;1.67;;;;;;;13.76;70.48;100544.41;5031306;28;20033;-69
2022/04/23 06:05:42;;;;;;;2.53;1.70;;;;;;;13.94;69.31;100558.81;5018087;28;20115;-69
2022/04/23 06:08:08;;;;;;;2.47;1.70;;;;;;;14.05;68.37;100561.56;5020033;28;20469;-69
2022/04/23 06:10:34;;;;;;;4.75;1.80;;;;;;;14.20;66.21;100550.41;5012742;28;20048;-69
2022/04/23 06:12:59;;;;;;;3.38;1.90;;;;;;;14.23;66.88;100551.56;5015838;28;20022;-69
2022/04/23 06:15:25;;;;;;;2.65;1.80;;;;;;;14.24;66.96;100556.63;5028146;28;20100;-69
2022/04/23 06:17:50;;;;;;;2.83;1.98;;;;;;;14.47;64.24;100569.88;5026087;28;20042;-68
2022/04/23 06:20:16;;;;;;;3.75;2.17;;;;;;;14.38;64.31;100556.69;5012893;28;20036;-69
2022/04/23 06:22:41;;;;;;;5.32;1.75;;;;;;;14.51;63.43;100559.84;5018193;28;20869;-69
2022/04/23 06:25:07;;;;;;;3.60;2.33;;;;;;;14.37;63.65;100552.44;5030182;28;20052;-68
2022/04/23 06:27:32;;;;;;;5.45;1.95;;;;;;;14.51;63.32;100559.84;5014391;28;20044;-68
2022/04/23 06:29:58;;;;;;;3.63;1.95;;;;;;;14.50;61.26;100565.66;5011187;28;20041;-68
2022/04/23 06:32:23;;;;;;;3.72;1.88;;;;;;;14.41;63.59;100569.50;5030821;28;20428;-68
2022/04/23 06:34:49;;;;;;;3.20;1.75;;;;;;;14.58;62.28;100561.78;5031423;28;20044;-69
2022/04/23 06:37:17;;;;;;;2.70;1.85;;;;;;;14.56;60.85;100556.75;5012403;28;20383;-69
2022/04/23 06:39:42;;;;;;;4.40;2.33;;;;;;;14.37;61.76;100559.78;5025076;28;20041;-68
2022/04/23 06:42:08;;;;;;;6.03;2.03;;;;;;;14.35;62.04;100553.97;5021819;28;20029;-68
2022/04/23 06:44:37;;;;;;;5.28;2.03;;;;;;;14.60;61.99;100564.88;5037439;28;20040;-68
2022/04/23 06:47:03;;;;;;;4.25;1.35;;;;;;;14.67;60.42;100560.28;5044464;28;20037;-68
2022/04/23 06:49:29;;;;;;;4.47;2.00;;;;;;;14.55;59.59;100568.75;5020524;28;20425;-68
2022/04/23 06:51:55;;;;;;;2.50;1.35;;;;;;;14.58;59.61;100557.13;5025864;28;20048;-68
2022/04/23 06:54:22;;;;;;;2.20;1.67;;;;;;;14.63;60.20;100556.78;5024895;28;20045;-69
2022/04/23 06:56:47;;;;;;;1.58;1.23;;;;;;;14.78;58.79;100549.44;5019310;28;20044;-69
2022/04/23 06:59:12;;;;;;;2.20;1.42;;;;;;;14.83;59.88;100547.13;5011833;28;20030;-68
2022/04/23 07:01:40;;;;;;;1.85;1.27;;;;;;;15.00;59.76;100556.44;5014777;28;20113;-69
2022/04/23 07:04:10;;;;;;;1.60;1.27;;;;;;;15.30;57.97;100562.25;5016757;28;20037;-69
2022/04/23 07:06:36;;;;;;;2.75;1.65;;;;;;;15.33;57.47;100556.81;5018428;28;20461;-68
2022/04/23 07:09:03;;;;;;;2.47;1.52;;;;;;;15.61;55.88;100569.63;5029436;28;20061;-68
2022/04/23 07:11:29;;;;;;;2.13;1.63;;;;;;;15.65;56.22;100556.81;5036397;28;20135;-69
2022/04/23 07:13:55;;;;;;;2.20;1.20;;;;;;;15.79;54.82;100559.50;5030125;28;20037;-69
2022/04/23 07:16:21;;;;;;;2.70;1.65;;;;;;;15.90;54.27;100560.25;5030866;28;20025;-69
2022/04/23 07:18:46;;;;;;;2.72;1.60;;;;;;;15.88;53.48;100550.94;5029456;28;20034;-69
2022/04/23 07:21:11;;;;;;;3.25;1.50;;;;;;;15.96;53.92;100566.03;5017463;28;20025;-69
2022/04/23 07:26:22;;;;;;;3.60;1.35;;;;;;;16.36;52.06;100567.44;5023823;28;20083;-69
2022/04/23 07:28:48;;;;;;;2.15;1.13;;;;;;;16.48;50.93;100565.06;5023158;28;20046;-68
2022/04/23 07:31:13;;;;;;;2.85;0.98;;;;;;;16.52;49.25;100567.78;5044803;28;20036;-68
2022/04/23 07:39:26;;;;;;;1.30;0.98;;;;;;;16.73;47.51;100565.72;5024454;28;20552;-68
2022/04/23 07:41:54;;;;;;;1.40;0.80;;;;;;;16.64;48.01;100570.81;5019044;28;20041;-69
2022/04/23 07:44:21;;;;;;;1.25;0.88;;;;;;;16.94;47.89;100568.28;5034901;28;20045;-69
2022/04/23 07:46:46;;;;;;;3.05;0.90;;;;;;;17.12;47.92;100557.28;5027567;28;20052;-68
2022/04/23 07:49:13;;;;;;;0.90;0.85;;;;;;;17.00;47.91;100561.25;5012094;28;20030;-69
2022/04/23 07:51:38;;;;;;;2.08;1.05;;;;;;;17.27;47.13;100558.69;5030359;28;20493;-69
2022/04/23 07:54:04;;;;;;;2.65;1.10;;;;;;;17.22;46.37;100553.69;5017640;28;20112;-69
2022/04/23 07:56:30;;;;;;;1.08;0.65;;;;;;;17.22;47.07;100553.69;5017747;28;20037;-69
2022/04/23 07:58:55;;;;;;;1.95;1.17;;;;;;;17.45;46.09;100556.59;5018028;28;20044;-68
2022/04/23 08:01:21;;;;;;;2.25;1.13;;;;;;;17.64;46.82;100549.81;5009198;28;20041;-68
2022/04/23 08:03:47;;;;;;;1.73;1.05;;;;;;;17.70;46.98;100559.09;5010002;28;20026;-69
2022/04/23 08:06:13;;;;;;;1.85;0.93;;;;;;;17.90;45.66;100555.38;5009476;28;20045;-69
2022/04/23 08:08:39;;;;;;;2.15;1.20;;;;;;;17.90;43.89;100560.81;5009999;28;20430;-69
2022/04/23 08:11:05;;;;;;;1.48;0.75;;;;;;;17.94;44.96;100560.81;5008996;28;20034;-69
2022/04/23 08:13:30;;;;;;;1.90;1.00;;;;;;;18.07;43.70;100561.03;5008718;28;20037;-68
2022/04/23 08:15:56;;;;;;;2.53;1.67;;;;;;;17.94;44.16;100567.00;5008858;28;20030;-69
2022/04/23 08:18:22;;;;;;;2.00;1.08;;;;;;;18.20;44.95;100568.25;5008492;28;20041;-69
2022/04/23 08:20:48;;;;;;;2.35;0.68;;;;;;;18.28;42.86;100558.03;5011288;28;20502;-68
2022/04/23 08:23:15;;;;;;;1.67;0.80;;;;;;;17.99;43.40;100558.41;5008537;28;20018;-69
2022/04/23 08:25:40;;;;;;;2.70;0.75;;;;;;;18.12;43.09;100561.34;5017925;28;20045;-69
2022/04/23 08:30:50;;;;;;;1.55;0.80;;;;;;;18.34;43.80;100556.41;5022407;28;20054;-69
2022/04/23 08:33:15;;;;;;;1.52;0.73;;;;;;;18.74;42.43;100566.41;5026815;28;20028;-69
2022/04/23 08:35:40;;;;;;;1.08;0.80;;;;;;;18.62;41.80;100554.09;5020474;28;20029;-69
2022/04/23 08:38:08;;;;;;;1.42;0.75;;;;;;;18.59;42.63;100556.88;5035942;28;20034;-68
2022/04/23 08:40:39;;;;;;;1.00;0.73;;;;;;;18.73;42.57;100546.53;5022594;28;20030;-69
2022/04/23 08:43:06;;;;;;;1.30;0.95;;;;;;;18.83;42.03;100547.56;5011606;28;20038;-69
2022/04/23 08:45:32;;;;;;;1.42;0.82;;;;;;;18.97;41.37;100547.34;5013876;28;20069;-69
2022/04/23 08:48:00;;;;;;;2.60;1.23;;;;;;;18.99;41.49;100550.41;5017834;28;20409;-68
2022/04/23 08:50:26;;;;;;;1.30;0.80;;;;;;;19.12;40.65;100543.22;5024754;28;20575;-69
2022/04/23 08:52:54;;;;;;;1.52;0.90;;;;;;;19.16;41.16;100535.72;5029231;28;20061;-69
2022/04/23 08:55:20;;;;;;;1.08;0.40;;;;;;;19.45;43.67;100538.78;5021615;28;20041;-69
2022/04/23 08:57:45;;;;;;;1.67;0.77;;;;;;;19.53;40.53;100530.00;5030332;28;20035;-69
2022/04/23 09:00:15;;;;;;;1.38;0.75;;;;;;;19.63;41.21;100539.97;5029861;28;20405;-69
2022/04/23 09:02:42;;;;;;;1.30;0.73;;;;;;;19.75;40.60;100531.16;5031035;28;20033;-68
2022/04/23 09:05:12;;;;;;;2.08;1.13;;;;;;;19.77;40.01;100533.47;5031822;28;20124;-69
2022/04/23 09:07:37;;;;;;;1.65;0.63;;;;;;;19.73;40.29;100530.81;5030928;28;20072;-69
2022/04/23 09:10:04;;;;;;;0.88;0.70;;;;;;;19.79;39.45;100529.16;5018830;28;20061;-69
2022/04/23 09:12:30;;;;;;;1.77;0.82;;;;;;;19.82;39.67;100519.34;5018325;28;20033;-69
2022/04/23 09:23:43;;;;;;;1.88;0.60;;;;;;;19.91;39.95;100518.75;5014877;28;20095;-69
2022/04/23 09:26:16;;;;;;;2.60;0.93;;;;;;;20.08;39.90;100514.88;5019015;28;20037;-69
2022/04/23 09:28:46;;;;;;;2.83;1.20;;;;;;;20.18;39.74;100525.66;5019353;28;20042;-69
2022/04/23 09:31:15;;;;;;;1.67;0.93;;;;;;;20.25;39.02;100519.25;5030600;28;20724;-69
2022/04/23 09:33:49;;;;;;;1.83;1.02;;;;;;;20.17;39.48;100512.38;5030305;28;20120;-69
2022/04/23 09:36:15;;;;;;;0.63;0.50;;;;;;;20.24;39.46;100507.56;5026547;28;20053;-69
2022/04/23 09:38:40;;;;;;;0.73;0.70;;;;;;;20.53;39.53;100507.69;5018397;28;20032;-69
2022/04/23 09:41:21;;;;;;;1.17;0.70;;;;;;;20.67;37.92;100507.38;5021228;28;20029;-68
2022/04/23 09:43:48;;;;;;;1.02;0.65;;;;;;;20.80;38.67;100499.22;5017143;28;20042;-69
2022/04/23 09:46:14;;;;;;;2.17;1.00;;;;;;;20.49;38.79;100507.00;5020333;28;20032;-69
2022/04/23 09:48:43;;;;;;;2.78;0.90;;;;;;;20.76;38.45;100495.81;5021761;28;20128;-68
2022/04/23 09:51:24;;;;;;;2.17;0.80;;;;;;;20.89;38.76;100502.13;5019335;28;20041;-69
2022/04/23 09:53:53;;;;;;;1.50;0.90;;;;;;;20.99;38.15;100501.88;5026689;28;20034;-69
2022/04/23 09:56:20;;;;;;;1.13;0.68;;;;;;;21.26;38.04;100499.66;5014799;28;20453;-69
2022/04/23 09:58:46;;;;;;;1.65;1.00;;;;;;;21.11;38.14;100489.50;5026409;28;20082;-69
2022/04/23 10:01:13;;;;;;;0.77;0.73;;;;;;;21.15;38.47;100484.69;5025382;28;20049;-69
2022/04/23 10:03:44;;;;;;;1.73;1.00;;;;;;;21.03;37.52;100501.81;5028872;28;20034;-69
2022/04/23 10:06:11;;;;;;;2.13;1.00;;;;;;;20.92;37.73;100496.59;5015054;28;20103;-69
2022/04/23 10:08:42;;;;;;;1.75;0.80;;;;;;;21.13;37.33;100484.34;5019047;28;20088;-69
2022/04/23 10:11:10;;;;;;;1.27;1.10;;;;;;;21.37;38.08;100494.66;5033654;28;20049;-68
2022/04/23 10:13:39;;;;;;;2.58;0.93;;;;;;;21.46;36.47;100497.56;5026236;28;20059;-69
2022/04/23 10:16:07;;;;;;;1.77;1.00;;;;;;;21.34;36.94;100490.06;5027210;28;20039;-69
2022/04/23 10:18:38;;;;;;;1.88;1.00;;;;;;;21.35;37.36;100488.09;5028658;28;20437;-69
2022/04/23 10:21:08;;;;;;;1.25;0.85;;;;;;;21.61;37.73;100483.47;5029768;28;20041;-69
2022/04/23 10:24:27;;;;;;;1.08;0.73;;;;;;;21.70;37.09;100492.59;5029766;28;20032;-69
2022/04/23 10:26:59;;;;;;;2.45;0.75;;;;;;;21.84;36.50;100494.97;5015954;28;21218;-69
2022/04/23 10:29:27;;;;;;;1.15;0.75;;;;;;;21.82;36.95;100483.66;5039560;28;20398;-69
2022/04/23 10:32:14;;;;;;;1.10;0.63;;;;;;;21.63;37.09;100490.06;5041380;28;20103;-68
2022/04/23 10:34:40;;;;;;;1.42;0.82;;;;;;;21.69;37.99;100488.31;5011098;28;20026;-69
2022/04/23 10:37:29;;;;;;;3.08;1.10;;;;;;;21.78;38.32;100479.44;5012788;28;20061;-69
2022/04/23 10:39:55;;;;;;;1.00;0.90;;;;;;;22.10;37.53;100477.38;5021542;28;20092;-69
2022/04/23 10:42:23;;;;;;;1.83;0.77;;;;;;;22.05;36.97;100493.56;5017188;28;20029;-69
2022/04/23 10:44:50;;;;;;;2.22;1.00;;;;;;;21.74;35.84;100492.50;5011164;28;20034;-69
2022/04/23 10:47:33;;;;;;;3.30;1.20;;;;;;;21.52;35.95;100479.38;5043565;28;20048;-69
2022/04/23 10:50:23;;;;;;;2.17;1.05;;;;;;;21.20;36.60;100481.41;5018220;28;20053;-69
2022/04/23 10:52:50;;;;;;;2.53;1.43;;;;;;;20.93;36.99;100484.44;5015325;28;20685;-69
2022/04/23 10:55:16;;;;;;;1.05;0.82;;;;;;;20.91;37.14;100472.34;5015379;28;20688;-69
2022/04/23 10:58:21;;;;;;;1.70;0.73;;;;;;;20.65;37.20;100466.72;5014412;28;20041;-69
2022/04/23 11:00:57;;;;;;;0.80;0.68;;;;;;;20.98;37.66;100466.72;4996624;28;20140;-68
2022/04/23 11:03:30;;;;;;;2.15;1.35;;;;;;;21.22;37.86;100460.63;5014982;28;20029;-68
2022/04/23 11:14:41;;;;;;;2.30;0.95;;;;;;;21.94;37.02;100455.50;5020023;28;20061;-68
2022/04/23 11:17:11;;;;;;;1.60;1.00;;;;;;;22.10;37.76;100451.91;5019020;28;20681;-69
2022/04/23 11:19:39;;;;;;;1.63;0.90;;;;;;;22.01;36.53;100447.06;5018810;28;20044;-69
2022/04/23 11:22:05;;;;;;;0.90;0.80;;;;;;;22.20;36.59;100448.06;5021567;28;20429;-69
2022/04/23 11:24:32;;;;;;;1.05;0.57;;;;;;;22.29;36.61;100448.16;5022673;28;20044;-69
2022/04/23 11:27:00;;;;;;;2.50;1.00;;;;;;;22.43;35.99;100440.25;5030821;28;20029;-69
2022/04/23 11:29:27;;;;;;;2.53;1.30;;;;;;;22.29;34.64;100446.19;5027039;28;20518;-69
2022/04/23 11:31:56;;;;;;;1.85;1.00;;;;;;;22.03;36.04;100435.63;5035868;28;20033;-69
2022/04/23 11:34:22;;;;;;;2.53;1.10;;;;;;;22.05;35.85;100444.97;5031318;28;20426;-69
2022/04/23 11:36:48;;;;;;;1.25;0.90;;;;;;;21.48;37.10;100434.09;5016933;28;20041;-68
2022/04/23 11:39:14;;;;;;;1.45;0.90;;;;;;;21.69;37.73;100438.19;5023395;28;20052;-69
2022/04/23 11:41:44;;;;;;;2.08;0.82;;;;;;;21.89;37.41;100438.81;5029546;28;20030;-69
2022/04/23 11:44:45;;;;;;;1.60;0.90;;;;;;;21.67;36.97;100430.41;5020648;28;20433;-69
2022/04/23 11:47:09;;;;;;;1.65;1.00;;;;;;;21.65;37.46;100421.84;5024071;28;20083;-69
2022/04/23 11:49:35;;;;;;;2.05;1.00;;;;;;;21.30;37.83;100422.84;5028683;28;20033;-69
2022/04/23 11:52:05;;;;;;;1.38;0.95;;;;;;;21.29;38.39;100422.06;5021735;28;20520;-68
2022/04/23 11:54:41;;;;;;;1.73;0.82;;;;;;;21.41;38.27;100423.31;5018561;28;20249;-68
2022/04/23 11:57:12;;;;;;;2.15;0.95;;;;;;;21.21;38.19;100414.47;5035191;28;20415;-68
2022/04/23 11:59:41;;;;;;;1.40;0.73;;;;;;;20.89;38.66;100418.03;5019593;28;20037;-68